• Join FlightAware (Why Join?)
  • Login
  • US Flag 
09:58PM EST


 

Airport Tracker/Info


-or-


 

Live Flight TrackerFlight Track Log ✈ AAY846 ✈ 10-Apr-2014 ✈ KPIE - KPIA

Flight Track Log - Related Links

Times and Time Zones

All times are in EDT time to prevent confusion due to time zone crossing. See the AAY846 flight status page for this flight to view local times or setup timezone preferences in your user account.

Time Position Orientation Groundspeed Altitude Reporting Facility
EDT Latitude Longitude Course Direction KTS MPH feet Rate Location/Type
01:58PM 27.9333 -82.6833 333° Northwest 161 185 800  Level Tampa TRACON
02:00PM 28.0089 -82.6628 14° North 212 244 3,200 2,368 Climbing Miami Center
02:01PM 28.1350 -82.6714 357° North 252 290 8,300 2,865 Climbing Jacksonville Center
02:02PM 28.2164 -82.6783 356° North 275 316 10,600 1,800 Climbing Jacksonville Center
02:03PM 28.3147 -82.6875 355° North 309 356 11,900 2,150 Climbing Jacksonville Center
02:04PM 28.4211 -82.6942 357° North 358 412 14,900 2,450 Climbing Jacksonville Center
02:05PM 28.5233 -82.7436 337° Northwest 388 447 16,800 1,800 Climbing Jacksonville Center
02:06PM 28.6236 -82.8050 332° Northwest 393 452 18,500 1,900 Climbing Jacksonville Center
02:07PM 28.7258 -82.8667 332° Northwest 405 466 20,600 1,850 Climbing Jacksonville Center
02:08PM 28.8602 -83.2820 333° Northwest  Level FlightAware Approximate
02:08PM 28.8344 -82.9233 335° Northwest 411 473 22,200  Level Jacksonville Center
02:09PM 28.9472 -82.9850 334° Northwest 423 487 23,900 1,800 Climbing Jacksonville Center
02:10PM 29.0597 -83.0397 337° Northwest 434 499 25,800 1,800 Climbing Jacksonville Center
02:11PM 29.1725 -83.0972 336° Northwest 439 505 27,500 1,800 Climbing Jacksonville Center
02:12PM 29.2850 -83.1472 339° North 439 505 29,400 1,450 Climbing Jacksonville Center
02:13PM 29.3892 -83.2072 333° Northwest 432 497 30,400 1,200 Climbing Jacksonville Center
02:14PM 29.4997 -83.2578 338° Northwest 422 486 31,800 800 Climbing Jacksonville Center
02:15PM 29.6039 -83.3153 334° Northwest 417 480 32,000 100 Climbing Jacksonville Center
02:16PM 29.7125 -83.3661 338° Northwest 417 480 32,000  Level Jacksonville Center
02:17PM 29.8186 -83.4242 335° Northwest 422 486 32,000  Level Jacksonville Center
02:19PM 30.0186 -83.5236 337° Northwest 417 480 32,000  Level Jacksonville Center
02:20PM 30.1269 -83.5769 337° Northwest 417 480 32,000  Level Jacksonville Center
02:23PM 30.4433 -83.7406 336° Northwest 417 480 32,000  Level Jacksonville Center
02:24PM 30.4479 -83.7396 336° Northwest  Level Estimated
02:25PM 30.6658 -83.8514 337° Northwest 417 480 32,000  Level Jacksonville Center
02:26PM 30.7761 -83.9033 338° Northwest 417 480 32,000  Level Jacksonville Center
02:27PM 30.8781 -83.9600 334° Northwest 417 480 32,000  Level Jacksonville Center
02:28PM 30.9883 -84.0122 338° Northwest 417 480 32,000  Level Jacksonville Center
02:30PM 31.2003 -84.1217 336° Northwest 417 480 32,000  Level Jacksonville Center
02:31PM 31.3039 -84.1814 334° Northwest 417 480 32,000  Level Jacksonville Center
02:34PM 31.5356 -84.2994 337° Northwest 416 479 32,000  Level Atlanta Center
02:35PM 31.6522 -84.3608 336° Northwest 416 479 32,000  Level Atlanta Center
02:36PM 31.7586 -84.4175 336° Northwest 416 479 32,000  Level Atlanta Center
02:38PM 31.9669 -84.5261 336° Northwest 416 479 32,000  Level Atlanta Center
02:39PM 32.0731 -84.5831 336° Northwest 421 484 32,000  Level Atlanta Center
02:40PM 32.1772 -84.6375 336° Northwest 421 484 32,000  Level Atlanta Center
02:41PM 32.2833 -84.6925 336° Northwest 421 484 32,000  Level Atlanta Center
02:42PM 32.3875 -84.7522 334° Northwest 421 484 32,000  Level Atlanta Center
02:43PM 32.4956 -84.8072 337° Northwest 421 484 32,000  Level Atlanta Center
02:44PM 32.5997 -84.8575 338° Northwest 416 479 32,000  Level Atlanta Center
02:45PM 32.7078 -84.9128 337° Northwest 411 473 32,000  Level Atlanta Center
02:46PM 32.8117 -84.9806 331° Northwest 415 478 32,000  Level Atlanta Center
02:47PM 32.9178 -85.0311 338° Northwest 421 484 32,000  Level Atlanta Center
02:48PM 33.0258 -85.0919 335° Northwest 421 484 32,000  Level Atlanta Center
02:49PM 33.1317 -85.1500 335° Northwest 421 484 32,000  Level Atlanta Center
02:50PM 33.2397 -85.2086 336° Northwest 421 484 32,000  Level Atlanta Center
02:51PM 33.3353 -85.2597 336° Northwest 421 484 32,000  Level Atlanta Center
02:52PM 33.4411 -85.3208 334° Northwest 421 484 32,000  Level Atlanta Center
02:53PM 33.5492 -85.3722 338° Northwest 415 478 32,000  Level Atlanta Center
02:54PM 33.6528 -85.4339 334° Northwest 415 478 32,000  Level Atlanta Center
02:56PM 33.8747 -85.5550 336° Northwest 415 478 32,000  Level Atlanta Center
02:57PM 33.9806 -85.6119 336° Northwest 415 478 32,000  Level Atlanta Center
02:58PM 34.0819 -85.6692 335° Northwest 415 478 32,000  Level Atlanta Center
02:59PM 34.1856 -85.7264 335° Northwest 415 478 32,000  Level Atlanta Center
03:00PM 34.2933 -85.7836 336° Northwest 415 478 32,000  Level Atlanta Center
03:01PM 34.3969 -85.8389 336° Northwest 415 478 32,000  Level Atlanta Center
03:02PM 34.5003 -85.8989 334° Northwest 409 471 32,000  Level Atlanta Center
03:03PM 34.6078 -85.9569 336° Northwest 409 471 32,000  Level Atlanta Center
03:04PM 34.7133 -86.0172 335° Northwest 409 471 32,000  Level Atlanta Center
03:05PM 34.8167 -86.0756 335° Northwest 414 476 32,000  Level Atlanta Center
03:06PM 34.9181 -86.1361 334° Northwest 414 476 32,000  Level Atlanta Center
03:07PM 35.0233 -86.1972 335° Northwest 414 476 32,000  Level Atlanta Center
03:08PM 35.1203 -86.2536 335° Northwest 421 484 32,000  Level Memphis Center
03:09PM 35.2261 -86.3103 336° Northwest 417 480 32,000  Level Memphis Center
03:10PM 35.3469 -86.3817 334° Northwest 410 472 32,000  Level Memphis Center
03:11PM 35.4519 -86.4411 335° Northwest 410 472 32,000  Level Memphis Center
03:12PM 35.5547 -86.5036 334° Northwest 409 471 32,000  Level Memphis Center
03:13PM 35.6597 -86.5594 337° Northwest 409 471 32,000  Level Memphis Center
03:15PM 35.8508 -86.6700 335° Northwest 411 473 32,000  Level Indianapolis Center
03:16PM 35.9522 -86.7353 332° Northwest 408 470 32,000  Level Indianapolis Center
03:17PM 36.0917 -86.8150 335° Northwest 409 471 32,000  Level Memphis Center
03:18PM 36.1961 -86.8739 336° Northwest 408 470 32,000  Level Memphis Center
03:20PM 36.3922 -86.9906 334° Northwest 407 468 32,000  Level Indianapolis Center
03:21PM 36.4961 -87.0503 335° Northwest 407 468 32,000  Level Indianapolis Center
03:22PM 36.5964 -87.1131 333° Northwest 403 464 32,000  Level Indianapolis Center
03:23PM 36.7006 -87.1711 336° Northwest 403 464 32,000  Level Indianapolis Center
03:24PM 36.8017 -87.2367 333° Northwest 403 464 32,000  Level Indianapolis Center
03:25PM 36.9036 -87.3017 333° Northwest 404 465 32,000  Level Indianapolis Center
03:26PM 37.0081 -87.3625 335° Northwest 406 467 32,000  Level Indianapolis Center
03:27PM 37.1133 -87.4256 334° Northwest 413 475 32,000  Level Indianapolis Center
03:28PM 37.2564 -87.5067 336° Northwest 417 480 32,000  Level Memphis Center
03:29PM 37.3575 -87.5767 331° Northwest 415 478 32,000  Level Memphis Center
03:30PM 37.4447 -87.6261 336° Northwest 412 474 32,000  Level Indianapolis Center
03:31PM 37.5458 -87.6922 333° Northwest 409 471 32,000  Level Indianapolis Center
03:32PM 37.6511 -87.7536 335° Northwest 407 468 32,000  Level Indianapolis Center
03:33PM 37.7528 -87.8186 333° Northwest 409 471 32,000  Level Indianapolis Center
03:34PM 37.8631 -87.8800 336° Northwest 407 468 32,000  Level Indianapolis Center
03:35PM 37.9639 -87.9514 331° Northwest 407 468 32,000  Level Indianapolis Center
03:37PM 38.1314 -88.0503 335° Northwest 412 474 32,000  Level Kansas City Center
03:38PM 38.2347 -88.1161 333° Northwest 412 474 32,000  Level Kansas City Center
03:39PM 38.2989 -88.1503 337° Northwest 412 474 32,000  Level Indianapolis Center
03:39PM 38.3397 -88.1789 331° Northwest 412 474 32,000  Level Kansas City Center
03:40PM 38.3981 -88.2225 330° Northwest 412 474 32,000  Level Indianapolis Center
03:40PM 38.4397 -88.2461 336° Northwest 408 470 32,000  Level Kansas City Center
03:42PM 38.6025 -88.3497 334° Northwest 407 468 32,000  Level Indianapolis Center
03:42PM 38.6636 -88.3861 335° Northwest 406 467 32,000 -194 Level Kansas City Center
03:43PM 38.7650 -88.4511 333° Northwest 407 468 31,700 -735 Descending Kansas City Center
03:45PM 38.9094 -88.5375 335° Northwest 405 466 30,100 -1,161 Descending Indianapolis Center
03:45PM 38.9694 -88.5800 331° Northwest 407 468 29,300 -1,161 Descending Kansas City Center
03:47PM 39.1344 -88.6808 335° Northwest 406 467 27,700 -1,065 Descending Indianapolis Center
03:47PM 39.1678 -88.7039 332° Northwest 409 471 27,100 -1,200 Descending Kansas City Center
03:49PM 39.3439 -88.8183 333° Northwest 412 474 25,200 -1,258 Descending Indianapolis Center
03:49PM 39.3919 -88.8511 332° Northwest 412 474 24,500 -1,174 Descending Kansas City Center
03:50PM 39.4903 -88.9197 332° Northwest 418 481 23,400 -1,584 Descending Kansas City Center
03:51PM 39.5925 -88.9781 336° Northwest 406 467 21,200 -2,016 Descending Kansas City Center
03:53PM 39.7072 -89.0589 332° Northwest 395 455 19,200 -1,694 Descending Kansas City Center
03:54PM 39.8047 -89.1181 335° Northwest 392 451 17,700 -1,306 Descending Kansas City Center
03:55PM 39.8975 -89.1853 331° Northwest 385 443 16,500 -1,161 Descending Kansas City Center
03:57PM 40.0836 -89.3078 333° Northwest 376 433 14,100 -1,340 Descending Kansas City Center
03:58PM 40.1914 -89.3764 334° Northwest 367 422 12,100 -1,401 Descending Chicago Center
03:59PM 40.2986 -89.4131 345° North 345 397 10,900 -1,048 Descending Chicago Center
04:00PM 40.3794 -89.4203 356° North 304 350 9,900 -1,500 Descending Chicago Center
04:01PM 40.4547 -89.4317 353° North 279 321 7,800 -1,984 Descending Chicago Center
04:02PM 40.5161 -89.4675 336° Northwest 262 302 5,800 -1,839 Descending Chicago Center
04:03PM 40.5656 -89.5358 314° West 226 260 4,000 -1,548 Descending Chicago Center
04:04PM 40.5975 -89.5775 315° West 211 243 2,600 -1,113 Descending Chicago Center
04:05PM 40.6278 -89.6322 306° West 174 200 1,700 -724 Descending Chicago Center
04:07PM 40.6672 -89.7028 306° West 137 158 500 -643 Descending Kansas City Center
04:09PM 40.6642 -89.6933 143° Southeast  Level Estimated